createdAt,value
2023-04-03T00:04:23.100Z,1.60
2023-04-03T00:09:44.405Z,1.40
2023-04-03T00:15:06.477Z,1.40
2023-04-03T00:20:28.531Z,1.40
2023-04-03T00:25:49.774Z,1.20
2023-04-03T00:31:11.529Z,1.10
2023-04-03T00:36:33.182Z,1.10
2023-04-03T00:41:54.620Z,0.80
2023-04-03T00:47:18.502Z,0.90
2023-04-03T00:52:41.118Z,0.90
2023-04-03T00:58:03.155Z,0.70
2023-04-03T01:03:25.508Z,0.70
2023-04-03T01:08:52.112Z,0.50
2023-04-03T01:14:13.400Z,0.50
2023-04-03T01:19:38.197Z,0.50
2023-04-03T01:24:59.916Z,0.60
2023-04-03T01:30:29.067Z,0.40
2023-04-03T01:35:51.064Z,0.50
2023-04-03T01:41:13.500Z,0.50
2023-04-03T01:46:36.078Z,0.50
2023-04-03T01:51:57.577Z,0.40
2023-04-03T01:57:19.254Z,0.30
2023-04-03T02:02:40.826Z,0.40
2023-04-03T02:08:02.620Z,0.20
2023-04-03T02:13:24.026Z,0.00
2023-04-03T02:18:45.420Z,0.10
2023-04-03T02:24:07.121Z,0.00
2023-04-03T02:29:29.492Z,-0.10
2023-04-03T02:34:51.038Z,-0.10
2023-04-03T02:40:12.796Z,-0.10
2023-04-03T02:45:34.220Z,-0.30
2023-04-03T02:50:55.432Z,-0.20
2023-04-03T02:56:16.870Z,-0.40
2023-04-03T03:01:38.605Z,-0.40
2023-04-03T03:06:59.829Z,-0.50
2023-04-03T03:12:22.954Z,-0.40
2023-04-03T03:17:45.372Z,-0.50
2023-04-03T03:23:07.019Z,-0.60
2023-04-03T03:28:29.538Z,-0.80
2023-04-03T03:33:51.208Z,-0.60
2023-04-03T03:39:12.840Z,-0.70
2023-04-03T03:44:34.331Z,-0.80
2023-04-03T03:49:55.793Z,-0.80
2023-04-03T03:55:17.817Z,-1.00
2023-04-03T04:00:42.536Z,-1.00
2023-04-03T04:06:04.669Z,-1.20
2023-04-03T04:11:26.471Z,-1.20
2023-04-03T04:16:52.916Z,-1.40
2023-04-03T04:22:19.590Z,-1.40
2023-04-03T04:27:41.134Z,-1.50
2023-04-03T04:33:03.950Z,-1.50
2023-04-03T04:38:28.251Z,-1.70
2023-04-03T04:43:53.701Z,-1.70
2023-04-03T04:49:15.779Z,-1.80
2023-04-03T04:54:38.136Z,-1.90
2023-04-03T04:59:59.492Z,-1.80
2023-04-03T05:05:21.011Z,-2.00
2023-04-03T05:10:43.764Z,-1.90
2023-04-03T05:16:07.443Z,-2.00
2023-04-03T05:21:33.400Z,-2.00
2023-04-03T05:26:59.494Z,-1.90
2023-04-03T05:32:21.809Z,-1.90
2023-04-03T05:37:48.533Z,-1.90
2023-04-03T05:43:11.947Z,-1.90
2023-04-03T05:48:36.510Z,-1.70
2023-04-03T05:54:21.552Z,-1.50
2023-04-03T05:59:44.159Z,-1.30
2023-04-03T06:05:08.188Z,-1.20
2023-04-03T06:10:30.881Z,-1.20
2023-04-03T06:15:52.567Z,-1.20
2023-04-03T06:21:14.099Z,-1.00
2023-04-03T06:26:36.401Z,-0.90
2023-04-03T06:31:57.873Z,-1.00
2023-04-03T06:37:22.672Z,-0.80
2023-04-03T06:42:44.346Z,-0.90
2023-04-03T06:48:07.573Z,-0.80
2023-04-03T06:53:29.153Z,-0.80
2023-04-03T06:58:51.997Z,-0.80
2023-04-03T07:04:13.738Z,-0.70
2023-04-03T07:09:35.290Z,-0.60
2023-04-03T07:14:56.628Z,-0.70
2023-04-03T07:20:18.411Z,-0.60
2023-04-03T07:25:48.160Z,-0.50
2023-04-03T07:31:14.702Z,-0.40
2023-04-03T07:36:37.244Z,-0.40
2023-04-03T07:41:58.878Z,-0.40
2023-04-03T07:47:21.484Z,-0.30
2023-04-03T07:52:42.676Z,-0.30
2023-04-03T07:58:04.390Z,-0.20
2023-04-03T08:03:26.247Z,-0.20
2023-04-03T08:08:48.325Z,-0.20
2023-04-03T08:14:12.187Z,0.00
2023-04-03T08:19:33.638Z,0.00
2023-04-03T08:24:59.406Z,-0.10
2023-04-03T08:30:21.422Z,0.10
2023-04-03T08:35:43.557Z,0.20
2023-04-03T08:41:31.938Z,0.20
2023-04-03T08:47:14.355Z,0.40
2023-04-03T08:52:48.837Z,0.70
2023-04-03T08:58:30.628Z,0.80
2023-04-03T09:03:52.090Z,0.90
2023-04-03T09:09:31.337Z,1.00
2023-04-03T09:15:35.592Z,1.20
2023-04-03T09:21:16.135Z,1.40
2023-04-03T09:26:54.650Z,1.60
2023-04-03T09:32:36.297Z,1.70
2023-04-03T09:38:10.326Z,1.90
2023-04-03T09:43:34.098Z,1.80
2023-04-03T09:49:09.333Z,2.00
2023-04-03T09:54:41.035Z,2.30
2023-04-03T10:00:06.033Z,2.20
2023-04-03T10:05:33.930Z,2.30
2023-04-03T10:11:17.910Z,2.30
2023-04-03T10:17:24.403Z,2.50
2023-04-03T10:22:46.628Z,2.60
2023-04-03T10:28:11.544Z,3.20
2023-04-03T10:33:55.577Z,3.60
2023-04-03T10:39:50.310Z,3.80
2023-04-03T10:45:34.238Z,4.30
2023-04-03T10:51:19.938Z,3.80
2023-04-03T10:56:53.296Z,3.50
2023-04-03T11:02:54.020Z,3.10
2023-04-03T11:08:52.540Z,3.20
2023-04-03T11:14:35.977Z,3.20
2023-04-03T11:20:18.542Z,3.20
2023-04-03T11:25:44.354Z,3.00
2023-04-03T11:31:31.790Z,3.20
2023-04-03T11:37:07.447Z,3.00
2023-04-03T11:42:51.032Z,2.90
2023-04-03T11:48:32.653Z,3.30
2023-04-03T11:53:54.719Z,3.40
2023-04-03T11:59:19.422Z,3.50
2023-04-03T12:05:02.764Z,3.60
2023-04-03T12:10:32.387Z,3.70
2023-04-03T12:15:55.004Z,3.80
2023-04-03T12:21:20.957Z,4.00
2023-04-03T12:27:00.585Z,4.30
2023-04-03T12:33:05.844Z,4.00
2023-04-03T12:38:46.722Z,3.90
2023-04-03T12:44:45.918Z,4.00
2023-04-03T12:50:25.092Z,3.70
2023-04-03T12:55:46.601Z,4.30
2023-04-03T13:01:24.476Z,4.70
2023-04-03T13:06:46.334Z,4.70
2023-04-03T13:12:14.993Z,4.20
2023-04-03T13:17:42.226Z,4.30
2023-04-03T13:23:10.340Z,4.30
2023-04-03T13:28:32.977Z,4.90
2023-04-03T13:34:12.366Z,4.60
2023-04-03T13:39:36.234Z,4.50
2023-04-03T13:45:29.409Z,4.30
2023-04-03T13:50:57.005Z,4.00
2023-04-03T13:56:30.526Z,4.00
2023-04-03T14:02:03.289Z,4.00
2023-04-03T14:07:25.775Z,3.90
2023-04-03T14:12:47.335Z,3.70
2023-04-03T14:18:11.594Z,3.70
2023-04-03T14:23:34.096Z,3.60
2023-04-03T14:28:56.867Z,3.60
2023-04-03T14:34:18.625Z,3.50
2023-04-03T14:39:40.050Z,3.70
2023-04-03T14:45:06.273Z,3.70
2023-04-03T14:50:28.813Z,3.60
2023-04-03T14:55:51.164Z,3.50
2023-04-03T15:01:15.288Z,3.20
2023-04-03T15:06:36.613Z,3.40
2023-04-03T15:11:57.887Z,3.30
2023-04-03T15:17:23.386Z,3.20
2023-04-03T15:22:45.073Z,3.00
2023-04-03T15:28:06.978Z,3.00
2023-04-03T15:33:28.973Z,3.00
2023-04-03T15:38:50.213Z,2.90
2023-04-03T15:44:13.266Z,2.80
2023-04-03T15:49:35.475Z,2.70
2023-04-03T15:54:56.631Z,2.80
2023-04-03T16:00:18.637Z,2.80
2023-04-03T16:05:40.838Z,2.80
2023-04-03T16:11:02.328Z,2.80
2023-04-03T16:16:25.812Z,2.80
2023-04-03T16:21:47.743Z,2.60
2023-04-03T16:27:09.009Z,2.60
2023-04-03T16:32:32.992Z,2.60
2023-04-03T16:37:54.207Z,2.40
2023-04-03T16:43:16.031Z,2.30
2023-04-03T16:48:37.397Z,2.20
2023-04-03T16:53:59.193Z,2.10
2023-04-03T16:59:20.824Z,2.00
2023-04-03T17:04:42.305Z,2.00
2023-04-03T17:10:04.284Z,1.90
2023-04-03T17:15:26.076Z,1.90
2023-04-03T17:20:47.636Z,1.90
2023-04-03T17:26:09.354Z,1.70
2023-04-03T17:31:30.998Z,1.60
2023-04-03T17:36:52.262Z,1.70
2023-04-03T17:42:13.651Z,1.70
2023-04-03T17:47:35.520Z,1.70
2023-04-03T17:52:57.087Z,1.70
2023-04-03T17:58:18.585Z,1.60
2023-04-03T18:03:40.440Z,1.50
2023-04-03T18:09:15.419Z,1.50
2023-04-03T18:14:39.062Z,1.40
2023-04-03T18:20:00.760Z,1.40
2023-04-03T18:25:22.459Z,1.30
2023-04-03T18:30:44.291Z,1.30
2023-04-03T18:36:06.134Z,1.20
2023-04-03T18:41:31.229Z,1.20
2023-04-03T18:46:54.065Z,1.20
2023-04-03T18:52:15.823Z,1.20
2023-04-03T18:57:37.586Z,1.20
2023-04-03T19:02:59.493Z,1.30
2023-04-03T19:08:21.352Z,1.40
2023-04-03T19:13:46.715Z,1.30
2023-04-03T19:19:24.284Z,1.30
2023-04-03T19:24:45.913Z,1.20
2023-04-03T19:30:09.700Z,1.10
2023-04-03T19:35:31.336Z,1.00
2023-04-03T19:40:52.852Z,0.90
2023-04-03T19:46:14.626Z,0.90
2023-04-03T19:51:35.985Z,0.80
2023-04-03T19:56:58.313Z,0.80
2023-04-03T20:02:21.538Z,0.70
2023-04-03T20:07:43.038Z,0.70
2023-04-03T20:13:08.639Z,0.60
2023-04-03T20:18:30.597Z,0.60
2023-04-03T20:23:51.998Z,0.60
2023-04-03T20:29:16.641Z,0.60
2023-04-03T20:34:38.182Z,0.60
2023-04-03T20:39:59.480Z,0.60
2023-04-03T20:45:21.735Z,0.60
2023-04-03T20:50:43.470Z,0.60
2023-04-03T20:56:05.308Z,0.60
2023-04-03T21:01:27.274Z,0.60
2023-04-03T21:07:27.495Z,0.60
2023-04-03T21:13:26.620Z,0.60
2023-04-03T21:19:15.993Z,0.50
2023-04-03T21:24:38.057Z,0.60
2023-04-03T21:29:59.706Z,0.50
2023-04-03T21:35:21.551Z,0.50
2023-04-03T21:40:46.769Z,0.60
2023-04-03T21:46:08.342Z,0.50
2023-04-03T21:51:29.941Z,0.50
2023-04-03T21:56:54.285Z,0.60
2023-04-03T22:02:15.731Z,0.60
2023-04-03T22:07:37.716Z,0.60
2023-04-03T22:12:59.179Z,0.60
2023-04-03T22:18:20.677Z,0.50
2023-04-03T22:23:42.282Z,0.50
2023-04-03T22:29:03.995Z,0.40
2023-04-03T22:34:25.572Z,0.30
2023-04-03T22:39:47.976Z,0.30
2023-04-03T22:45:09.992Z,0.20
2023-04-03T22:50:31.979Z,0.20
2023-04-03T22:55:57.754Z,0.20
2023-04-03T23:01:20.333Z,0.10
2023-04-03T23:06:41.819Z,0.20
2023-04-03T23:12:03.176Z,0.10
2023-04-03T23:17:24.611Z,0.10
2023-04-03T23:22:46.447Z,0.20
2023-04-03T23:28:07.980Z,0.20
2023-04-03T23:33:30.902Z,0.20
2023-04-03T23:38:55.705Z,0.20
2023-04-03T23:44:17.726Z,0.20
2023-04-03T23:49:39.243Z,0.20
2023-04-03T23:55:00.560Z,0.20
